createdAt,value
2023-01-21T00:00:57.849Z,11.10
2023-01-21T00:03:25.284Z,11.48
2023-01-21T00:05:52.377Z,11.43
2023-01-21T00:08:19.467Z,10.85
2023-01-21T00:10:46.480Z,11.23
2023-01-21T00:13:13.477Z,10.93
2023-01-21T00:15:40.407Z,12.60
2023-01-21T00:18:08.071Z,12.55
2023-01-21T00:20:35.253Z,11.60
2023-01-21T00:23:02.344Z,12.32
2023-01-21T00:25:29.484Z,11.73
2023-01-21T00:27:56.490Z,12.43
2023-01-21T00:30:23.536Z,11.55
2023-01-21T00:32:50.590Z,11.70
2023-01-21T00:35:17.688Z,11.52
2023-01-21T00:37:44.635Z,11.25
2023-01-21T00:40:12.114Z,11.55
2023-01-21T00:42:39.097Z,12.02
2023-01-21T00:45:06.701Z,11.13
2023-01-21T00:47:33.886Z,10.20
2023-01-21T00:50:00.848Z,11.20
2023-01-21T00:52:27.959Z,11.68
2023-01-21T00:54:54.843Z,11.25
2023-01-21T00:57:21.884Z,11.45
2023-01-21T00:59:49.004Z,11.70
2023-01-21T01:02:16.054Z,11.85
2023-01-21T01:04:43.104Z,12.82
2023-01-21T01:07:11.562Z,12.35
2023-01-21T01:09:38.509Z,12.23
2023-01-21T01:12:06.548Z,11.82
2023-01-21T01:14:33.548Z,11.50
2023-01-21T01:17:00.456Z,11.52
2023-01-21T01:19:27.580Z,12.32
2023-01-21T01:21:54.659Z,13.30
2023-01-21T01:24:21.593Z,14.65
2023-01-21T01:26:48.961Z,13.55
2023-01-21T01:29:16.007Z,13.65
2023-01-21T01:31:44.269Z,12.73
2023-01-21T01:34:11.298Z,13.25
2023-01-21T01:36:38.297Z,12.98
2023-01-21T01:39:05.688Z,13.50
2023-01-21T01:41:35.115Z,13.02
2023-01-21T01:44:26.506Z,14.57
2023-01-21T01:46:58.482Z,13.95
2023-01-21T01:49:25.459Z,14.23
2023-01-21T01:51:58.955Z,14.57
2023-01-21T01:54:38.489Z,14.93
2023-01-21T01:57:08.855Z,13.70
2023-01-21T01:59:36.887Z,13.27
2023-01-21T02:02:07.500Z,14.50
2023-01-21T02:04:47.123Z,16.23
2023-01-21T02:07:15.699Z,14.27
2023-01-21T02:09:42.800Z,13.80
2023-01-21T02:12:09.911Z,14.55
2023-01-21T02:14:43.223Z,16.52
2023-01-21T02:17:17.464Z,15.95
2023-01-21T02:19:59.432Z,15.18
2023-01-21T02:22:32.094Z,15.45
2023-01-21T02:25:47.055Z,16.13
2023-01-21T02:28:46.033Z,15.85
2023-01-21T02:31:44.505Z,15.25
2023-01-21T02:34:50.110Z,15.57
2023-01-21T02:37:25.614Z,15.85
2023-01-21T02:40:13.620Z,16.63
2023-01-21T02:43:01.867Z,15.02
2023-01-21T02:45:50.454Z,17.58
2023-01-21T02:48:22.559Z,16.33
2023-01-21T02:50:53.728Z,16.55
2023-01-21T02:53:29.448Z,15.57
2023-01-21T02:56:18.613Z,16.27
2023-01-21T02:58:50.455Z,16.08
2023-01-21T03:01:51.194Z,16.60
2023-01-21T03:04:47.067Z,16.55
2023-01-21T03:07:19.833Z,17.50
2023-01-21T03:09:46.934Z,16.00
2023-01-21T03:12:30.058Z,17.38
2023-01-21T03:15:53.960Z,17.42
2023-01-21T03:18:26.973Z,16.52
2023-01-21T03:21:02.904Z,15.35
2023-01-21T03:23:58.593Z,18.83
2023-01-21T03:26:36.850Z,18.00
2023-01-21T03:29:11.068Z,17.17
2023-01-21T03:31:40.340Z,16.17
2023-01-21T03:34:11.110Z,17.30
2023-01-21T03:37:16.948Z,17.08
2023-01-21T03:39:48.000Z,17.30
2023-01-21T03:42:15.678Z,16.45
2023-01-21T03:44:42.795Z,18.15
2023-01-21T03:47:33.212Z,19.05
2023-01-21T03:50:06.122Z,18.27
2023-01-21T03:52:33.669Z,18.92
2023-01-21T03:55:00.690Z,17.73
2023-01-21T03:57:27.738Z,17.27
2023-01-21T03:59:56.156Z,18.77
2023-01-21T04:02:23.323Z,19.10
2023-01-21T04:04:51.586Z,18.30
2023-01-21T04:07:19.116Z,19.83
2023-01-21T04:09:46.173Z,18.80
2023-01-21T04:12:13.311Z,18.83
2023-01-21T04:14:40.245Z,18.98
2023-01-21T04:17:07.186Z,19.40
2023-01-21T04:19:34.164Z,17.90
2023-01-21T04:22:01.183Z,18.42
2023-01-21T04:24:28.157Z,17.30
2023-01-21T04:26:55.265Z,18.17
2023-01-21T04:29:22.334Z,17.08
2023-01-21T04:31:49.394Z,17.85
2023-01-21T04:34:19.439Z,17.70
2023-01-21T04:36:46.817Z,18.40
2023-01-21T04:39:13.970Z,18.23
2023-01-21T04:41:40.906Z,18.95
2023-01-21T04:44:07.936Z,17.77
2023-01-21T04:46:34.921Z,18.77
2023-01-21T04:49:01.907Z,17.75
2023-01-21T04:51:28.923Z,18.33
2023-01-21T04:53:55.897Z,19.65
2023-01-21T04:56:23.049Z,17.60
2023-01-21T04:58:50.011Z,18.08
2023-01-21T05:01:17.075Z,17.90
2023-01-21T05:03:44.133Z,18.30
2023-01-21T05:06:11.196Z,19.13
2023-01-21T05:08:38.137Z,20.52
2023-01-21T05:11:08.414Z,18.27
2023-01-21T05:13:35.537Z,18.10
2023-01-21T05:16:08.496Z,18.70
2023-01-21T05:18:37.357Z,19.50
2023-01-21T05:21:05.325Z,19.23
2023-01-21T05:23:32.311Z,18.85
2023-01-21T05:25:59.274Z,18.85
2023-01-21T05:28:26.227Z,18.88
2023-01-21T05:30:53.279Z,19.17
2023-01-21T05:33:26.127Z,18.45
2023-01-21T05:35:53.155Z,20.95
2023-01-21T05:38:20.113Z,20.80
2023-01-21T05:40:47.140Z,19.60
2023-01-21T05:43:14.082Z,18.98
2023-01-21T05:45:41.046Z,18.67
2023-01-21T05:48:08.031Z,20.60
2023-01-21T05:50:35.080Z,20.17
2023-01-21T05:53:02.033Z,18.92
2023-01-21T05:55:28.945Z,20.45
2023-01-21T05:57:56.118Z,20.80
2023-01-21T06:00:23.223Z,20.80
2023-01-21T06:02:50.242Z,21.10
2023-01-21T06:05:17.168Z,21.63
2023-01-21T06:07:44.124Z,19.85
2023-01-21T06:10:11.275Z,21.50
2023-01-21T06:12:38.186Z,19.27
2023-01-21T06:15:05.658Z,21.50
2023-01-21T06:17:32.724Z,20.25
2023-01-21T06:19:59.645Z,21.25
2023-01-21T06:22:26.658Z,20.50
2023-01-21T06:24:53.561Z,19.80
2023-01-21T06:27:20.559Z,21.65
2023-01-21T06:29:47.469Z,21.27
2023-01-21T06:32:14.416Z,21.35
2023-01-21T06:34:41.342Z,20.73
2023-01-21T06:37:08.284Z,22.27
2023-01-21T06:39:35.501Z,20.70
2023-01-21T06:42:02.416Z,22.40
2023-01-21T06:44:29.371Z,19.98
2023-01-21T06:47:03.524Z,20.50
2023-01-21T06:49:30.486Z,23.05
2023-01-21T06:51:57.479Z,21.48
2023-01-21T06:54:24.511Z,21.10
2023-01-21T06:56:51.481Z,21.33
2023-01-21T06:59:18.437Z,20.60
2023-01-21T07:01:45.480Z,21.42
2023-01-21T07:04:12.706Z,22.10
2023-01-21T07:06:40.722Z,22.13
2023-01-21T07:09:08.126Z,23.23
2023-01-21T07:11:35.766Z,24.90
2023-01-21T07:14:02.955Z,22.30
2023-01-21T07:16:29.985Z,21.63
2023-01-21T07:18:57.020Z,21.42
2023-01-21T07:21:25.565Z,22.85
2023-01-21T07:23:53.719Z,21.65
2023-01-21T07:26:20.713Z,22.70
2023-01-21T07:28:47.878Z,21.67
2023-01-21T07:31:15.010Z,21.20
2023-01-21T07:33:42.153Z,22.50
2023-01-21T07:36:12.543Z,22.58
2023-01-21T07:38:39.540Z,22.42
2023-01-21T07:41:06.486Z,22.98
2023-01-21T07:43:33.444Z,21.27
2023-01-21T07:46:00.713Z,22.60
2023-01-21T07:48:27.737Z,22.35
2023-01-21T07:51:00.399Z,21.75
2023-01-21T07:53:27.500Z,22.52
2023-01-21T07:55:55.100Z,22.92
2023-01-21T07:58:22.030Z,23.13
2023-01-21T08:00:48.999Z,23.08
2023-01-21T08:03:18.092Z,22.25
2023-01-21T08:05:46.709Z,24.00
2023-01-21T08:08:13.651Z,24.77
2023-01-21T08:10:40.630Z,22.88
2023-01-21T08:13:07.979Z,23.00
2023-01-21T08:15:34.916Z,24.55
2023-01-21T08:18:01.892Z,22.58
2023-01-21T08:20:28.871Z,23.25
2023-01-21T08:23:00.412Z,22.02
2023-01-21T08:25:27.530Z,23.23
2023-01-21T08:27:54.481Z,22.45
2023-01-21T08:30:21.499Z,23.27
2023-01-21T08:32:48.507Z,22.30
2023-01-21T08:35:15.970Z,22.95
2023-01-21T08:37:43.563Z,23.77
2023-01-21T08:40:11.393Z,22.98
2023-01-21T08:42:38.408Z,23.65
2023-01-21T08:45:06.479Z,23.63
2023-01-21T08:47:33.417Z,23.35
2023-01-21T08:50:00.363Z,22.80
2023-01-21T08:52:27.356Z,24.60
2023-01-21T08:54:54.334Z,23.02
2023-01-21T08:57:21.300Z,22.83
2023-01-21T08:59:48.265Z,23.92
2023-01-21T09:02:15.509Z,25.08
2023-01-21T09:04:42.529Z,22.58
2023-01-21T09:07:09.490Z,23.77
2023-01-21T09:09:36.431Z,24.10
2023-01-21T09:12:05.849Z,25.38
2023-01-21T09:14:32.899Z,24.08
2023-01-21T09:16:59.850Z,22.33
2023-01-21T09:19:27.560Z,23.20
2023-01-21T09:21:55.587Z,23.83
2023-01-21T09:24:22.658Z,24.08
2023-01-21T09:26:49.594Z,24.17
2023-01-21T09:29:16.607Z,22.88
2023-01-21T09:31:43.632Z,24.77
2023-01-21T09:34:11.946Z,22.35
2023-01-21T09:36:39.645Z,23.35
2023-01-21T09:39:07.272Z,24.60
2023-01-21T09:41:37.457Z,22.85
2023-01-21T09:44:30.280Z,23.70
2023-01-21T09:47:18.029Z,22.88
2023-01-21T09:49:58.596Z,23.30
2023-01-21T09:52:41.034Z,22.77
2023-01-21T09:55:27.965Z,23.23
2023-01-21T09:58:06.802Z,22.05
2023-01-21T10:00:57.863Z,25.50
2023-01-21T10:04:09.191Z,24.48
2023-01-21T10:07:10.949Z,23.48
2023-01-21T10:09:40.616Z,21.15
2023-01-21T10:12:19.313Z,21.67
2023-01-21T10:15:00.643Z,23.50
2023-01-21T10:17:27.532Z,23.08
2023-01-21T10:20:05.261Z,22.80
2023-01-21T10:22:32.557Z,22.35
2023-01-21T10:25:03.708Z,22.38
2023-01-21T10:27:35.357Z,21.70
2023-01-21T10:30:22.619Z,23.73
2023-01-21T10:32:53.005Z,23.02
2023-01-21T10:35:31.582Z,22.17
2023-01-21T10:38:09.633Z,21.55
2023-01-21T10:40:47.504Z,22.58
2023-01-21T10:43:33.166Z,23.45
2023-01-21T10:46:28.078Z,24.23
2023-01-21T10:49:06.579Z,22.40
2023-01-21T10:51:42.993Z,24.42
2023-01-21T10:54:37.506Z,23.75
2023-01-21T10:57:23.275Z,21.48
2023-01-21T10:59:51.451Z,21.95
2023-01-21T11:02:27.820Z,23.48
2023-01-21T11:04:58.292Z,19.98
2023-01-21T11:07:26.662Z,21.73
2023-01-21T11:09:53.843Z,21.13
2023-01-21T11:12:21.716Z,22.60
2023-01-21T11:14:58.542Z,19.85
2023-01-21T11:17:37.821Z,21.42
2023-01-21T11:20:27.421Z,21.80
2023-01-21T11:22:54.621Z,22.02
2023-01-21T11:25:34.511Z,22.92
2023-01-21T11:28:02.202Z,21.45
2023-01-21T11:30:50.734Z,22.38
2023-01-21T11:33:25.816Z,21.80
2023-01-21T11:35:54.440Z,22.55
2023-01-21T11:38:25.534Z,20.77
2023-01-21T11:41:21.444Z,20.95
2023-01-21T11:43:51.658Z,20.60
2023-01-21T11:46:39.097Z,21.00
2023-01-21T11:49:08.854Z,20.00
2023-01-21T11:51:38.107Z,21.02
2023-01-21T11:54:18.108Z,21.63
2023-01-21T11:56:58.221Z,21.17
2023-01-21T11:59:25.129Z,20.45
2023-01-21T12:02:05.304Z,19.27
2023-01-21T12:04:34.540Z,20.10
2023-01-21T12:07:01.783Z,21.95
2023-01-21T12:09:29.497Z,20.33
2023-01-21T12:12:20.968Z,19.85
2023-01-21T12:14:54.592Z,20.83
2023-01-21T12:17:59.125Z,20.35
2023-01-21T12:20:32.855Z,21.25
2023-01-21T12:23:37.362Z,19.85
2023-01-21T12:26:41.400Z,20.05
2023-01-21T12:29:42.351Z,21.08
2023-01-21T12:32:17.021Z,21.38
2023-01-21T12:35:06.702Z,19.60
2023-01-21T12:37:49.181Z,20.83
2023-01-21T12:40:31.748Z,20.13
2023-01-21T12:43:06.968Z,22.85
2023-01-21T12:45:42.147Z,21.48
2023-01-21T12:48:27.591Z,21.95
2023-01-21T12:51:02.651Z,22.35
2023-01-21T12:54:04.453Z,23.50
2023-01-21T12:56:43.549Z,22.92
2023-01-21T12:59:51.933Z,21.70
2023-01-21T13:02:25.247Z,22.52
2023-01-21T13:05:17.995Z,21.25
2023-01-21T13:08:03.538Z,23.23
2023-01-21T13:10:44.113Z,22.92
2023-01-21T13:13:17.756Z,25.48
2023-01-21T13:15:49.622Z,24.30
2023-01-21T13:18:29.310Z,25.10
2023-01-21T13:21:20.039Z,25.75
2023-01-21T13:23:57.236Z,24.80
2023-01-21T13:26:31.060Z,25.63
2023-01-21T13:29:12.515Z,27.42
2023-01-21T13:32:09.851Z,27.02
2023-01-21T13:35:08.907Z,27.98
2023-01-21T13:38:05.606Z,27.83
2023-01-21T13:40:50.865Z,27.63
2023-01-21T13:43:54.754Z,26.40
2023-01-21T13:46:52.706Z,28.15
2023-01-21T13:49:39.191Z,28.70
2023-01-21T13:52:26.000Z,27.98
2023-01-21T13:55:29.740Z,25.55
2023-01-21T13:58:10.761Z,26.85
2023-01-21T14:00:40.348Z,25.88
2023-01-21T14:03:47.037Z,26.80
2023-01-21T14:06:21.490Z,26.67
2023-01-21T14:09:01.182Z,29.77
2023-01-21T14:11:35.650Z,26.50
2023-01-21T14:14:15.870Z,25.40
2023-01-21T14:16:58.617Z,25.85
2023-01-21T14:19:53.992Z,23.95
2023-01-21T14:22:58.559Z,23.60
2023-01-21T14:25:50.222Z,23.40
2023-01-21T14:28:28.375Z,24.13
2023-01-21T14:31:23.907Z,22.85
2023-01-21T14:34:15.599Z,22.50
2023-01-21T14:36:51.564Z,23.95
2023-01-21T14:39:49.196Z,23.05
2023-01-21T14:42:18.628Z,23.33
2023-01-21T14:45:04.738Z,23.10
2023-01-21T14:47:32.154Z,22.08
2023-01-21T14:50:00.126Z,22.70
2023-01-21T14:52:34.972Z,23.42
2023-01-21T14:55:03.660Z,21.77
2023-01-21T14:57:35.736Z,22.13
2023-01-21T15:00:12.570Z,22.13
2023-01-21T15:02:42.803Z,21.83
2023-01-21T15:05:25.716Z,22.83
2023-01-21T15:08:25.470Z,22.15
2023-01-21T15:11:20.802Z,19.92
2023-01-21T15:14:02.359Z,21.88
2023-01-21T15:16:36.078Z,20.38
2023-01-21T15:19:08.972Z,22.70
2023-01-21T15:21:44.705Z,21.85
2023-01-21T15:24:26.105Z,23.38
2023-01-21T15:27:15.185Z,23.00
2023-01-21T15:29:59.375Z,20.88
2023-01-21T15:32:49.695Z,21.33
2023-01-21T15:35:24.979Z,20.83
2023-01-21T15:37:59.403Z,20.98
2023-01-21T15:40:36.683Z,20.48
2023-01-21T15:43:25.971Z,21.90
2023-01-21T15:46:18.265Z,20.50
2023-01-21T15:49:00.477Z,20.73
2023-01-21T15:52:04.694Z,20.40
2023-01-21T15:54:44.178Z,19.60
2023-01-21T15:57:28.896Z,17.92
2023-01-21T15:59:58.693Z,18.52
2023-01-21T16:02:35.188Z,18.23
2023-01-21T16:05:25.235Z,19.25
2023-01-21T16:08:14.402Z,19.42
2023-01-21T16:10:51.090Z,19.20
2023-01-21T16:13:42.175Z,19.77
2023-01-21T16:16:23.354Z,19.90
2023-01-21T16:19:05.194Z,20.20
2023-01-21T16:21:42.652Z,20.10
2023-01-21T16:24:24.918Z,20.90
2023-01-21T16:26:52.107Z,20.05
2023-01-21T16:29:19.491Z,20.60
2023-01-21T16:31:59.496Z,20.67
2023-01-21T16:34:42.341Z,18.73
2023-01-21T16:37:23.854Z,20.23
2023-01-21T16:40:16.401Z,20.27
2023-01-21T16:42:44.287Z,19.90
2023-01-21T16:45:19.106Z,26.98
2023-01-21T16:47:53.336Z,22.02
2023-01-21T16:50:24.860Z,20.63
2023-01-21T16:52:53.635Z,19.73
2023-01-21T16:55:23.349Z,20.55
2023-01-21T16:57:55.501Z,20.75
2023-01-21T17:00:31.865Z,19.73
2023-01-21T17:03:00.097Z,19.15
2023-01-21T17:05:30.607Z,20.08
2023-01-21T17:08:01.339Z,18.38
2023-01-21T17:10:35.298Z,19.42
2023-01-21T17:13:14.066Z,20.50
2023-01-21T17:15:43.414Z,22.23
2023-01-21T17:18:21.678Z,19.30
2023-01-21T17:21:12.519Z,19.77
2023-01-21T17:23:52.308Z,18.55
2023-01-21T17:26:25.198Z,18.40
2023-01-21T17:29:08.325Z,18.60
2023-01-21T17:31:44.083Z,18.48
2023-01-21T17:34:17.180Z,19.98
2023-01-21T17:36:46.941Z,19.75
2023-01-21T17:39:16.857Z,20.33
2023-01-21T17:41:46.395Z,21.58
2023-01-21T17:44:16.548Z,19.50
2023-01-21T17:46:47.874Z,20.95
2023-01-21T17:49:18.306Z,22.20
2023-01-21T17:51:45.649Z,19.65
2023-01-21T17:54:23.935Z,20.15
2023-01-21T17:56:56.680Z,25.42
2023-01-21T17:59:38.241Z,20.55
2023-01-21T18:02:12.261Z,21.30
2023-01-21T18:04:40.138Z,22.02
2023-01-21T18:07:23.100Z,22.55
2023-01-21T18:09:51.728Z,21.40
2023-01-21T18:12:19.488Z,20.42
2023-01-21T18:14:47.107Z,19.88
2023-01-21T18:17:23.752Z,20.88
2023-01-21T18:19:51.021Z,21.10
2023-01-21T18:22:21.038Z,24.35
2023-01-21T18:24:48.209Z,23.88
2023-01-21T18:27:15.388Z,25.13
2023-01-21T18:29:43.400Z,23.50
2023-01-21T18:32:15.354Z,23.13
2023-01-21T18:34:42.630Z,27.23
2023-01-21T18:37:15.897Z,22.90
2023-01-21T18:39:42.946Z,21.60
2023-01-21T18:42:17.770Z,24.30
2023-01-21T18:44:44.897Z,21.90
2023-01-21T18:47:16.976Z,23.83
2023-01-21T18:49:44.438Z,21.95
2023-01-21T18:52:15.213Z,21.95
2023-01-21T18:54:42.548Z,22.75
2023-01-21T18:57:16.301Z,22.50
2023-01-21T18:59:43.295Z,23.55
2023-01-21T19:02:16.785Z,26.05
2023-01-21T19:04:44.659Z,23.80
2023-01-21T19:07:20.434Z,23.00
2023-01-21T19:09:50.561Z,23.13
2023-01-21T19:12:21.049Z,22.52
2023-01-21T19:14:48.844Z,20.85
2023-01-21T19:17:33.103Z,21.08
2023-01-21T19:20:00.167Z,21.58
2023-01-21T19:22:27.109Z,23.58
2023-01-21T19:24:54.081Z,22.10
2023-01-21T19:27:33.843Z,21.35
2023-01-21T19:30:01.257Z,22.25
2023-01-21T19:32:28.214Z,20.88
2023-01-21T19:34:57.762Z,20.23
2023-01-21T19:37:25.211Z,20.25
2023-01-21T19:39:52.146Z,20.75
2023-01-21T19:42:19.210Z,21.25
2023-01-21T19:44:46.148Z,21.15
2023-01-21T19:47:25.054Z,20.38
2023-01-21T19:49:52.010Z,20.25
2023-01-21T19:52:18.950Z,21.00
2023-01-21T19:54:45.899Z,20.67
2023-01-21T19:57:14.984Z,19.92
2023-01-21T19:59:48.064Z,19.38
2023-01-21T20:02:15.081Z,19.63
2023-01-21T20:04:42.032Z,20.05
2023-01-21T20:07:15.587Z,17.92
2023-01-21T20:09:42.616Z,21.00
2023-01-21T20:12:12.419Z,19.20
2023-01-21T20:14:39.557Z,22.40
2023-01-21T20:17:06.511Z,20.63
2023-01-21T20:19:33.623Z,18.92
2023-01-21T20:22:03.669Z,20.13
2023-01-21T20:24:33.887Z,17.88
2023-01-21T20:27:05.214Z,19.85
2023-01-21T20:29:33.644Z,19.30
2023-01-21T20:32:00.706Z,18.65
2023-01-21T20:34:30.928Z,17.65
2023-01-21T20:36:59.311Z,19.25
2023-01-21T20:39:26.500Z,19.02
2023-01-21T20:41:53.617Z,19.83
2023-01-21T20:44:20.760Z,20.15
2023-01-21T20:46:48.667Z,19.38
2023-01-21T20:49:15.579Z,19.50
2023-01-21T20:51:42.578Z,18.30
2023-01-21T20:54:09.842Z,18.83
2023-01-21T20:56:38.351Z,16.90
2023-01-21T20:59:05.575Z,17.73
2023-01-21T21:01:34.939Z,18.02
2023-01-21T21:04:02.559Z,18.02
2023-01-21T21:06:33.509Z,17.33
2023-01-21T21:09:00.722Z,17.83
2023-01-21T21:11:27.634Z,16.35
2023-01-21T21:13:55.217Z,17.55
2023-01-21T21:16:26.222Z,17.88
2023-01-21T21:18:53.405Z,17.08
2023-01-21T21:21:23.515Z,17.75
2023-01-21T21:23:51.598Z,17.30
2023-01-21T21:26:26.689Z,17.40
2023-01-21T21:28:54.935Z,16.95
2023-01-21T21:31:23.265Z,16.75
2023-01-21T21:33:50.726Z,17.38
2023-01-21T21:36:19.908Z,18.13
2023-01-21T21:38:47.584Z,16.77
2023-01-21T21:41:44.455Z,16.15
2023-01-21T21:44:11.726Z,16.23
2023-01-21T21:46:57.854Z,16.83
2023-01-21T21:49:25.318Z,18.40
2023-01-21T21:51:52.509Z,16.92
2023-01-21T21:54:19.738Z,18.35
2023-01-21T21:56:47.388Z,18.08
2023-01-21T21:59:14.986Z,16.58
2023-01-21T22:01:43.371Z,18.40
2023-01-21T22:04:10.935Z,18.58
2023-01-21T22:06:38.006Z,18.73
2023-01-21T22:09:05.539Z,18.77
2023-01-21T22:11:32.599Z,17.08
2023-01-21T22:14:03.821Z,17.30
2023-01-21T22:16:31.626Z,18.80
2023-01-21T22:19:00.309Z,18.85
2023-01-21T22:21:32.892Z,18.73
2023-01-21T22:24:01.198Z,17.20
2023-01-21T22:26:28.646Z,18.40
2023-01-21T22:28:56.002Z,18.15
2023-01-21T22:31:25.879Z,18.67
2023-01-21T22:33:53.283Z,19.02
2023-01-21T22:36:22.405Z,19.67
2023-01-21T22:38:50.460Z,18.67
2023-01-21T22:41:20.103Z,19.23
2023-01-21T22:43:49.272Z,18.05
2023-01-21T22:46:30.051Z,17.35
2023-01-21T22:48:57.801Z,16.95
2023-01-21T22:51:25.033Z,18.55
2023-01-21T22:53:54.965Z,17.48
2023-01-21T22:56:39.837Z,17.63
2023-01-21T22:59:11.352Z,17.90
2023-01-21T23:01:38.697Z,18.50
2023-01-21T23:04:05.764Z,17.85
2023-01-21T23:06:32.837Z,17.83
2023-01-21T23:09:00.586Z,17.95
2023-01-21T23:11:27.716Z,19.67
2023-01-21T23:13:55.317Z,18.85
2023-01-21T23:16:22.498Z,19.88
2023-01-21T23:18:49.651Z,19.05
2023-01-21T23:21:21.345Z,17.55
2023-01-21T23:23:49.037Z,17.85
2023-01-21T23:26:19.132Z,17.75
2023-01-21T23:28:47.251Z,19.25
2023-01-21T23:31:16.876Z,16.80
2023-01-21T23:33:44.206Z,17.65
2023-01-21T23:36:15.740Z,18.33
2023-01-21T23:38:43.439Z,17.92
2023-01-21T23:41:13.720Z,18.23
2023-01-21T23:43:40.938Z,17.55
2023-01-21T23:46:10.847Z,17.70
2023-01-21T23:48:37.969Z,19.20
2023-01-21T23:51:07.109Z,18.50
2023-01-21T23:53:34.665Z,18.25
2023-01-21T23:56:06.951Z,17.42
2023-01-21T23:58:34.254Z,18.90
